Terminal Aerodrome Forecast
Issued by NWS Binghamton, NY

Home | Current Version | Previous Version | Text Only | Print | Product List | Glossary On
Versions: 1 2 3 4 5 6 7 8 9 10 11 12 13 14 15 16 17 18 19 20 21 22 23 24
000
FTUS41 KBGM 270534
TAFSYR
TAF
KSYR 270534Z 2706/2806 12011G20KT 5SM -RA OVC021 WS020/18035KT
      TEMPO 2708/2712 4SM -SHRA BR OVC008
     FM271200 15006KT 5SM -SHRA BR OVC021 WS020/18035KT
     FM271700 23007KT P6SM OVC015=

USA.gov is the U.S. government's official web portal to all federal, state and local government web resources and services.